| time (UTC) | temp C | wind direction | speed KPH | gust KPH | rain 1hr cm | rain 24hr cm | rain mn cm | humidity % | barometer mb |
| 20260508181540 | 18 | 360 | 16.1 | 33.8 | 0.00 | 0.00 | 0.00 | 50 | 1009.7 |
| 20260508180026 | 18 | 360 | 12.9 | 24.1 | 0.00 | 0.00 | 0.00 | 51 | 1009.9 |
| 20260508174522 | 17 | 219 | 14.5 | 29.0 | 0.00 | 0.00 | 0.00 | 51 | 1010.2 |
| 20260508173033 | 17 | 221 | 9.7 | 29.0 | 0.00 | 0.00 | 0.00 | 52 | 1010.5 |
| 20260508171524 | 17 | 216 | 14.5 | 22.5 | 0.00 | 0.00 | 0.00 | 52 | 1010.7 |
| 20260508170014 | 17 | 360 | 12.9 | 24.1 | 0.00 | 0.00 | 0.00 | 51 | 1011.0 |
| 20260508164516 | 16 | 239 | 8.0 | 16.1 | 0.00 | 0.00 | 0.00 | 53 | 1011.2 |
| 20260508163010 | 16 | 360 | 9.7 | 19.3 | 0.00 | 0.00 | 0.00 | 53 | 1011.6 |
| 20260508161504 | 16 | 242 | 11.3 | 20.9 | 0.00 | 0.00 | 0.00 | 53 | 1012.1 |
| 20260508160002 | 15 | 360 | 4.8 | 14.5 | 0.00 | 0.00 | 0.00 | 53 | 1012.2 |
| 20260508154601 | 15 | 296 | 11.3 | 19.3 | 0.00 | 0.00 | 0.00 | 53 | 1012.5 |
| 20260508153057 | 15 | 236 | 9.7 | 17.7 | 0.00 | 0.00 | 0.00 | 53 | 1012.7 |
| 20260508151605 | 13 | 238 | 8.0 | 16.1 | 0.00 | 0.00 | 0.00 | 52 | 1012.6 |
| 20260508150050 | 13 | 360 | 9.7 | 16.1 | 0.00 | 0.00 | 0.00 | 50 | 1012.7 |
| 20260508144549 | 12 | 209 | 9.7 | 17.7 | 0.00 | 0.00 | 0.00 | 52 | 1012.9 |
| 20260508143049 | 12 | 360 | 11.3 | 20.9 | 0.00 | 0.00 | 0.00 | 53 | 1012.9 |
| 20260508141544 | 12 | 360 | 12.9 | 20.9 | 0.00 | 0.00 | 0.00 | 49 | 1012.8 |
| 20260508140039 | 11 | 201 | 8.0 | 14.5 | 0.00 | 0.00 | 0.00 | 37 | 1012.7 |
| 20260508134536 | 11 | 213 | 8.0 | 12.9 | 0.00 | 0.00 | 0.00 | 34 | 1012.9 |
| 20260508133050 | 11 | 211 | 8.0 | 12.9 | 0.00 | 0.00 | 0.00 | 41 | 1012.7 |
| 20260508131534 | 11 | 218 | 8.0 | 12.9 | 0.00 | 0.00 | 0.00 | 42 | 1012.9 |
| 20260508130033 | 10 | 216 | 6.4 | 11.3 | 0.00 | 0.00 | 0.00 | 40 | 1013.0 |
| 20260508124531 | 10 | 219 | 6.4 | 9.7 | 0.00 | 0.00 | 0.00 | 41 | 1012.9 |
| 20260508123037 | 10 | 360 | 4.8 | 12.9 | 0.00 | 0.00 | 0.00 | 41 | 1013.0 |
| 20260508121530 | 10 | 226 | 8.0 | 16.1 | 0.00 | 0.00 | 0.00 | 42 | 1013.0 |
| 20260508120030 | 10 | 360 | 9.7 | 12.9 | 0.00 | 0.00 | 0.00 | 46 | 1013.0 |
| 20260508114528 | 10 | 219 | 9.7 | 14.5 | 0.00 | 0.00 | 0.00 | 51 | 1012.9 |
| 20260508113031 | 10 | 237 | 9.7 | 17.7 | 0.00 | 0.00 | 0.00 | 51 | 1012.7 |
| 20260508111528 | 10 | 212 | 9.7 | 17.7 | 0.00 | 0.00 | 0.00 | 52 | 1012.4 |
| 20260508110030 | 10 | 256 | 9.7 | 19.3 | 0.00 | 0.00 | 0.00 | 53 | 1012.4 |
| 20260508104525 | 10 | 245 | 9.7 | 17.7 | 0.00 | 0.00 | 0.00 | 52 | 1012.4 |
| 20260508103025 | 10 | 199 | 4.8 | 12.9 | 0.00 | 0.00 | 0.00 | 48 | 1012.4 |
| 20260508101524 | 10 | 229 | 3.2 | 11.3 | 0.00 | 0.00 | 0.00 | 48 | 1012.3 |
| 20260508100026 | 9 | 217 | 6.4 | 9.7 | 0.00 | 0.00 | 0.00 | 48 | 1012.2 |
| 20260508094523 | 9 | 220 | 8.0 | 11.3 | 0.00 | 0.00 | 0.00 | 50 | 1012.2 |
| 20260508093024 | 9 | 238 | 6.4 | 12.9 | 0.00 | 0.00 | 0.00 | 51 | 1012.3 |
| 20260508091526 | 9 | 360 | 8.0 | 11.3 | 0.00 | 0.00 | 0.00 | 52 | 1012.2 |
| 20260508090023 | 10 | 221 | 8.0 | 12.9 | 0.00 | 0.00 | 0.00 | 53 | 1012.4 |
| 20260508084518 | 10 | 225 | 8.0 | 14.5 | 0.00 | 0.00 | 0.00 | 54 | 1012.6 |
| 20260508083018 | 10 | 360 | 9.7 | 19.3 | 0.00 | 0.00 | 0.00 | 54 | 1012.4 |
| 20260508081522 | 10 | 234 | 11.3 | 20.9 | 0.00 | 0.00 | 0.00 | 54 | 1012.4 |
| 20260508080018 | 10 | 227 | 12.9 | 20.9 | 0.00 | 0.00 | 0.00 | 54 | 1012.5 |
| 20260508074516 | 10 | 360 | 12.9 | 22.5 | 0.00 | 0.00 | 0.00 | 54 | 1012.5 |
| 20260508073013 | 10 | 360 | 9.7 | 19.3 | 0.00 | 0.00 | 0.00 | 53 | 1012.6 |
| 20260508071517 | 10 | 213 | 9.7 | 16.1 | 0.00 | 0.00 | 0.00 | 54 | 1012.7 |
| 20260508070010 | 10 | 225 | 9.7 | 14.5 | 0.00 | 0.00 | 0.00 | 53 | 1012.8 |
| 20260508064510 | 10 | 213 | 6.4 | 16.1 | 0.00 | 0.00 | 0.00 | 50 | 1012.8 |
| 20260508063007 | 10 | 228 | 8.0 | 14.5 | 0.00 | 0.00 | 0.00 | 49 | 1012.9 |
| 20260508061515 | 10 | 360 | 6.4 | 14.5 | 0.00 | 0.00 | 0.00 | 44 | 1013.0 |
| 20260508060005 | 9 | 360 | 8.0 | 9.7 | 0.00 | 0.00 | 0.00 | 37 | 1013.1 |
| 20260508054503 | 8 | 360 | 4.8 | 8.0 | 0.00 | 0.00 | 0.00 | 30 | 1013.3 |
| 20260508053002 | 9 | 227 | 1.6 | 6.4 | 0.00 | 0.00 | 0.00 | 34 | 1013.3 |
| 20260508051600 | 9 | 360 | 1.6 | 9.7 | 0.00 | 0.00 | 0.00 | 40 | 1013.4 |
| 20260508050055 | 10 | 226 | 0.0 | 9.7 | 0.00 | 0.00 | 0.00 | 45 | 1013.4 |
| 20260508044604 | 10 | 360 | 6.4 | 8.0 | 0.00 | 0.00 | 0.00 | 49 | 1013.3 |
| 20260508043102 | 10 | 10 | 0.0 | 6.4 | 0.00 | 0.00 | 0.00 | 46 | 1013.5 |
| 20260508041554 | 10 | 311 | 4.8 | 16.1 | 0.00 | 0.00 | 0.00 | 45 | 1013.4 |
| 20260508040047 | 10 | 219 | 9.7 | 16.1 | 0.00 | 0.00 | 0.00 | 43 | 1013.0 |
| 20260508034552 | 10 | 360 | 8.0 | 12.9 | 0.00 | 0.00 | 0.00 | 35 | 1012.9 |
| 20260508033043 | 10 | 205 | 6.4 | 11.3 | 0.00 | 0.00 | 0.00 | 34 | 1012.9 |
| 20260508031543 | 10 | 360 | 8.0 | 11.3 | 0.00 | 0.00 | 0.00 | 31 | 1013.0 |
| 20260508030046 | 10 | 360 | 6.4 | 11.3 | 0.00 | 0.00 | 0.00 | 25 | 1013.0 |
| 20260508024545 | 10 | 360 | 4.8 | 11.3 | 0.00 | 0.00 | 0.00 | 25 | 1013.1 |
| 20260508023040 | 10 | 214 | 4.8 | 9.7 | 0.00 | 0.00 | 0.00 | 21 | 1013.3 |
| 20260508021539 | 10 | 232 | 3.2 | 8.0 | 0.00 | 0.00 | 0.00 | 23 | 1013.3 |
| 20260508020044 | 10 | 217 | 1.6 | 8.0 | 0.00 | 0.00 | 0.00 | 28 | 1013.2 |
| 20260508014537 | 10 | 215 | 3.2 | 8.0 | 0.00 | 0.00 | 0.00 | 29 | 1013.1 |
| 20260508013037 | 10 | 212 | 1.6 | 8.0 | 0.00 | 0.00 | 0.00 | 34 | 1013.1 |
| 20260508011542 | 10 | 218 | 1.6 | 6.4 | 0.00 | 0.00 | 0.00 | 41 | 1012.9 |
| 20260508010036 | 10 | 226 | 4.8 | 9.7 | 0.00 | 0.00 | 0.00 | 45 | 1013.0 |
| 20260508004534 | 10 | 229 | 3.2 | 9.7 | 0.00 | 0.00 | 0.00 | 48 | 1013.0 |
| 20260508003033 | 11 | 244 | 3.2 | 9.7 | 0.00 | 0.00 | 0.00 | 52 | 1013.3 |
| 20260508001536 | 11 | 263 | 1.6 | 9.7 | 0.00 | 0.00 | 0.00 | 55 | 1013.4 |
| 20260508000033 | 11 | 245 | 4.8 | 17.7 | 0.00 | 0.00 | 0.00 | 56 | 1013.2 |
| 20260507234532 | 12 | 227 | 6.4 | 16.1 | 0.00 | 0.00 | 0.00 | 56 | 1013.3 |
| 20260507233034 | 12 | 219 | 11.3 | 22.5 | 0.00 | 0.00 | 0.00 | 56 | 1013.4 |
| 20260507231538 | 12 | 250 | 6.4 | 14.5 | 0.00 | 0.00 | 0.00 | 51 | 1013.5 |
| 20260507230029 | 13 | 254 | 6.4 | 9.7 | 0.00 | 0.00 | 0.00 | 49 | 1013.3 |
| 20260507224528 | 13 | 277 | 4.8 | 14.5 | 0.00 | 0.00 | 0.00 | 47 | 1013.1 |
| 20260507223028 | 13 | 243 | 6.4 | 16.1 | 0.00 | 0.00 | 0.00 | 47 | 1013.1 |
| 20260507221531 | 13 | 259 | 9.7 | 14.5 | 0.00 | 0.00 | 0.00 | 47 | 1012.9 |
| 20260507220027 | 13 | 219 | 4.8 | 11.3 | 0.00 | 0.00 | 0.00 | 46 | 1013.1 |
| 20260507214526 | 13 | 281 | 8.0 | 14.5 | 0.00 | 0.00 | 0.00 | 46 | 1012.9 |
| 20260507213028 | 13 | 233 | 8.0 | 17.7 | 0.00 | 0.00 | 0.00 | 48 | 1013.0 |
| 20260507211526 | 13 | 213 | 8.0 | 16.1 | 0.00 | 0.00 | 0.00 | 47 | 1013.0 |
| 20260507210025 | 13 | 244 | 9.7 | 19.3 | 0.00 | 0.00 | 0.00 | 46 | 1013.0 |
| 20260507204523 | 14 | 22 | 11.3 | 20.9 | 0.00 | 0.00 | 0.00 | 41 | 1013.1 |
| 20260507203024 | 13 | 222 | 6.4 | 16.1 | 0.00 | 0.00 | 0.00 | 44 | 1013.3 |
| 20260507201518 | 13 | 17 | 4.8 | 16.1 | 0.00 | 0.00 | 0.00 | 46 | 1013.5 |
| 20260507200020 | 12 | 351 | 8.0 | 12.9 | 0.00 | 0.00 | 0.00 | 45 | 1013.8 |
| 20260507194514 | 13 | 349 | 9.7 | 17.7 | 0.00 | 0.00 | 0.00 | 44 | 1014.0 |
| 20260507193015 | 13 | 279 | 8.0 | 16.1 | 0.00 | 0.00 | 0.00 | 45 | 1013.9 |
| 20260507191513 | 13 | 312 | 6.4 | 19.3 | 0.00 | 0.00 | 0.00 | 45 | 1013.8 |
| 20260507190009 | 12 | 311 | 12.9 | 20.9 | 0.00 | 0.00 | 0.00 | 47 | 1014.2 |
| 20260507184508 | 12 | 9 | 14.5 | 20.9 | 0.00 | 0.00 | 0.00 | 44 | 1014.0 |
| 20260507183027 | 12 | 276 | 11.3 | 24.1 | 0.00 | 0.00 | 0.00 | 45 | 1014.2 |